createdAt,value
2019-05-19T00:00:13.241Z,15.53
2019-05-19T00:02:42.809Z,14.50
2019-05-19T00:05:12.744Z,13.43
2019-05-19T00:07:42.245Z,14.87
2019-05-19T00:10:11.880Z,14.63
2019-05-19T00:12:41.362Z,14.80
2019-05-19T00:15:11.352Z,14.33
2019-05-19T00:17:40.874Z,13.30
2019-05-19T00:20:10.632Z,16.23
2019-05-19T00:22:40.211Z,15.23
2019-05-19T00:25:10.076Z,14.83
2019-05-19T00:27:39.983Z,13.57
2019-05-19T00:30:10.769Z,13.60
2019-05-19T00:32:40.306Z,11.43
2019-05-19T00:35:09.908Z,11.50
2019-05-19T00:37:39.492Z,10.87
2019-05-19T00:40:09.292Z,11.03
2019-05-19T00:42:38.803Z,12.10
2019-05-19T00:45:08.808Z,10.23
2019-05-19T00:47:38.387Z,10.33
2019-05-19T00:50:08.240Z,10.87
2019-05-19T00:52:37.805Z,11.17
2019-05-19T00:55:07.765Z,12.83
2019-05-19T00:57:37.287Z,12.10
2019-05-19T01:00:08.398Z,12.47
2019-05-19T01:02:37.895Z,12.90
2019-05-19T01:05:07.962Z,12.73
2019-05-19T01:07:37.617Z,13.53
2019-05-19T01:10:07.738Z,13.00
2019-05-19T01:12:37.349Z,13.00
2019-05-19T01:15:07.467Z,13.70
2019-05-19T01:17:38.331Z,13.90
2019-05-19T01:20:08.586Z,13.60
2019-05-19T01:22:38.188Z,12.83
2019-05-19T01:25:08.135Z,12.53
2019-05-19T01:27:37.591Z,14.57
2019-05-19T01:30:08.915Z,13.20
2019-05-19T01:32:38.408Z,13.37
2019-05-19T01:35:07.962Z,13.73
2019-05-19T01:37:37.464Z,11.80
2019-05-19T01:40:08.142Z,13.23
2019-05-19T01:42:37.711Z,13.33
2019-05-19T01:45:07.764Z,13.60
2019-05-19T01:47:37.307Z,13.47
2019-05-19T01:50:17.417Z,14.50
2019-05-19T01:52:39.097Z,14.30
2019-05-19T01:55:09.465Z,16.80
2019-05-19T01:57:39.368Z,16.30
2019-05-19T02:00:09.953Z,15.30
2019-05-19T02:02:39.499Z,16.67
2019-05-19T02:05:09.350Z,18.00
2019-05-19T02:07:38.876Z,16.90
2019-05-19T02:10:10.504Z,17.20
2019-05-19T02:12:40.155Z,16.87
2019-05-19T02:15:09.981Z,16.17
2019-05-19T02:17:39.669Z,15.60
2019-05-19T02:20:09.615Z,16.70
2019-05-19T02:22:39.113Z,16.63
2019-05-19T02:25:09.146Z,17.67
2019-05-19T02:27:38.657Z,17.23
2019-05-19T02:30:09.576Z,17.37
2019-05-19T02:32:39.089Z,21.57
2019-05-19T02:35:08.830Z,20.17
2019-05-19T02:37:38.327Z,19.33
2019-05-19T02:40:09.171Z,18.17
2019-05-19T02:42:39.976Z,20.33
2019-05-19T02:45:10.475Z,19.40
2019-05-19T02:47:43.056Z,20.97
2019-05-19T02:50:13.002Z,24.23
2019-05-19T02:52:44.347Z,20.30
2019-05-19T02:55:14.478Z,19.00
2019-05-19T02:57:44.193Z,18.47
2019-05-19T03:00:13.940Z,17.23
2019-05-19T03:02:43.445Z,16.70
2019-05-19T03:05:13.331Z,16.03
2019-05-19T03:07:42.815Z,15.70
2019-05-19T03:10:12.398Z,17.87
2019-05-19T03:12:41.873Z,16.67
2019-05-19T03:15:11.468Z,17.05
2019-05-19T03:17:41.287Z,17.92
2019-05-19T03:20:10.877Z,14.00
2019-05-19T03:22:40.454Z,16.63
2019-05-19T03:25:10.069Z,14.93
2019-05-19T03:27:39.619Z,14.57
2019-05-19T03:30:11.135Z,10.93
2019-05-19T03:32:42.491Z,9.63
2019-05-19T03:35:12.074Z,10.75
2019-05-19T03:37:41.658Z,9.35
2019-05-19T03:40:12.862Z,9.48
2019-05-19T03:42:42.438Z,9.15
2019-05-19T03:45:12.008Z,9.88
2019-05-19T03:47:41.574Z,9.55
2019-05-19T03:50:11.200Z,9.68
2019-05-19T03:52:40.710Z,9.20
2019-05-19T03:55:10.362Z,8.60
2019-05-19T03:57:39.899Z,8.00
2019-05-19T04:00:09.959Z,8.23
2019-05-19T04:02:39.519Z,8.48
2019-05-19T04:05:09.334Z,7.05
2019-05-19T04:07:38.834Z,7.62
2019-05-19T04:10:09.766Z,7.47
2019-05-19T04:12:39.249Z,7.50
2019-05-19T04:15:09.143Z,7.20
2019-05-19T04:17:38.679Z,6.60
2019-05-19T04:20:09.031Z,7.30
2019-05-19T04:22:38.533Z,6.37
2019-05-19T04:25:08.190Z,7.92
2019-05-19T04:27:37.806Z,8.83
2019-05-19T04:30:08.668Z,8.38
2019-05-19T04:32:38.252Z,10.82
2019-05-19T04:35:07.861Z,12.03
2019-05-19T04:37:37.472Z,9.83
2019-05-19T04:40:07.573Z,9.37
2019-05-19T04:42:37.122Z,8.40
2019-05-19T04:45:06.904Z,9.17
2019-05-19T04:47:36.576Z,10.13
2019-05-19T04:50:07.040Z,10.30
2019-05-19T04:52:36.653Z,9.93
2019-05-19T04:55:06.491Z,10.80
2019-05-19T04:57:36.668Z,10.60
2019-05-19T05:00:07.804Z,10.97
2019-05-19T05:02:37.357Z,10.40
2019-05-19T05:05:07.273Z,11.10
2019-05-19T05:07:36.865Z,12.30
2019-05-19T05:10:07.336Z,13.63
2019-05-19T05:12:36.923Z,13.97
2019-05-19T05:15:06.960Z,14.33
2019-05-19T05:17:36.503Z,15.70
2019-05-19T05:20:07.527Z,13.30
2019-05-19T05:22:37.087Z,15.75
2019-05-19T05:25:07.937Z,16.32
2019-05-19T05:27:37.502Z,16.35
2019-05-19T05:30:08.765Z,16.48
2019-05-19T05:32:38.251Z,16.52
2019-05-19T05:35:08.111Z,16.67
2019-05-19T05:37:37.623Z,15.00
2019-05-19T05:40:07.885Z,13.68
2019-05-19T05:42:37.387Z,14.75
2019-05-19T05:45:08.691Z,15.98
2019-05-19T05:47:38.238Z,16.07
2019-05-19T05:50:07.993Z,15.28
2019-05-19T05:52:39.011Z,14.73
2019-05-19T05:55:08.773Z,12.82
2019-05-19T05:57:38.274Z,11.30
2019-05-19T06:00:08.795Z,11.68
2019-05-19T06:02:38.345Z,9.50
2019-05-19T06:05:09.185Z,9.20
2019-05-19T06:07:38.724Z,8.83
2019-05-19T06:10:09.215Z,11.03
2019-05-19T06:12:38.808Z,11.08
2019-05-19T06:15:09.021Z,10.43
2019-05-19T06:17:38.589Z,10.05
2019-05-19T06:20:08.810Z,9.60
2019-05-19T06:22:54.685Z,8.07
2019-05-19T06:25:10.114Z,8.20
2019-05-19T06:27:39.616Z,8.17
2019-05-19T06:30:10.984Z,7.30
2019-05-19T06:32:42.646Z,7.20
2019-05-19T06:35:12.501Z,7.47
2019-05-19T06:37:42.031Z,8.70
2019-05-19T06:40:13.085Z,8.17
2019-05-19T06:42:42.676Z,8.17
2019-05-19T06:45:14.976Z,8.67
2019-05-19T06:47:44.536Z,7.97
2019-05-19T06:50:14.572Z,7.43
2019-05-19T06:52:44.050Z,8.30
2019-05-19T06:55:14.007Z,7.47
2019-05-19T06:57:48.040Z,7.03
2019-05-19T07:00:18.480Z,7.73
2019-05-19T07:02:48.038Z,6.47
2019-05-19T07:05:17.903Z,6.10
2019-05-19T07:07:47.438Z,7.60
2019-05-19T07:10:17.216Z,8.40
2019-05-19T07:12:46.738Z,9.00
2019-05-19T07:15:16.293Z,7.53
2019-05-19T07:17:46.154Z,9.25
2019-05-19T07:20:15.825Z,8.90
2019-05-19T07:22:45.345Z,8.78
2019-05-19T07:25:15.252Z,8.23
2019-05-19T07:27:44.895Z,7.67
2019-05-19T07:30:15.509Z,8.10
2019-05-19T07:32:45.089Z,6.87
2019-05-19T07:35:14.677Z,7.12
2019-05-19T07:37:44.201Z,6.43
2019-05-19T07:40:13.812Z,6.50
2019-05-19T07:42:43.309Z,6.37
2019-05-19T07:45:13.207Z,5.93
2019-05-19T07:47:42.697Z,5.13
2019-05-19T07:50:12.220Z,6.40
2019-05-19T07:52:41.797Z,5.87
2019-05-19T07:55:12.891Z,5.27
2019-05-19T07:57:42.435Z,6.20
2019-05-19T08:00:12.573Z,6.70
2019-05-19T08:02:43.567Z,6.10
2019-05-19T08:05:13.638Z,5.20
2019-05-19T08:07:43.114Z,4.23
2019-05-19T08:10:12.784Z,5.90
2019-05-19T08:12:42.528Z,4.00
2019-05-19T08:15:12.238Z,4.50
2019-05-19T08:17:41.834Z,4.07
2019-05-19T08:20:12.652Z,4.00
2019-05-19T08:22:42.262Z,4.17
2019-05-19T08:25:12.069Z,5.30
2019-05-19T08:27:41.738Z,4.43
2019-05-19T08:30:11.504Z,5.08
2019-05-19T08:32:41.850Z,4.57
2019-05-19T08:35:12.341Z,5.00
2019-05-19T08:37:43.509Z,4.33
2019-05-19T08:40:13.226Z,3.90
2019-05-19T08:42:43.445Z,4.03
2019-05-19T08:45:13.175Z,4.77
2019-05-19T08:47:42.729Z,4.97
2019-05-19T08:50:12.460Z,5.37
2019-05-19T08:52:44.149Z,5.10
2019-05-19T08:55:13.910Z,4.47
2019-05-19T08:57:45.025Z,4.47
2019-05-19T09:00:14.869Z,4.20
2019-05-19T09:02:44.421Z,4.37
2019-05-19T09:05:13.980Z,4.15
2019-05-19T09:07:43.635Z,3.70
2019-05-19T09:10:14.061Z,5.62
2019-05-19T09:12:45.190Z,4.30
2019-05-19T09:15:15.114Z,7.37
2019-05-19T09:17:44.656Z,7.20
2019-05-19T09:20:14.170Z,4.92
2019-05-19T09:25:27.105Z,10.97
2019-05-19T09:27:56.678Z,12.55
2019-05-19T09:30:26.173Z,11.70
2019-05-19T09:33:00.707Z,10.18
2019-05-19T09:35:30.289Z,7.57
2019-05-19T09:37:59.924Z,11.20
2019-05-19T09:40:29.506Z,11.60
2019-05-19T09:42:59.058Z,11.78
2019-05-19T09:45:32.127Z,11.97
2019-05-19T09:48:01.605Z,12.20
2019-05-19T09:50:31.196Z,10.25
2019-05-19T09:53:00.803Z,11.50
2019-05-19T09:55:30.303Z,11.57
2019-05-19T09:57:59.793Z,10.13
2019-05-19T10:00:29.538Z,10.10
2019-05-19T10:02:59.068Z,9.80
2019-05-19T10:05:28.617Z,10.20
2019-05-19T10:07:58.133Z,8.30
2019-05-19T10:10:30.977Z,8.40
2019-05-19T10:13:00.467Z,8.23
2019-05-19T10:15:29.950Z,8.45
2019-05-19T10:17:59.428Z,8.33
2019-05-19T10:20:29.134Z,8.55
2019-05-19T10:22:59.672Z,7.35
2019-05-19T10:25:29.186Z,6.47
2019-05-19T10:27:58.705Z,6.47
2019-05-19T10:30:28.257Z,6.47
2019-05-19T10:32:58.799Z,5.83
2019-05-19T10:35:28.360Z,5.60
2019-05-19T10:37:58.116Z,5.12
2019-05-19T10:40:27.629Z,3.87
2019-05-19T10:42:57.109Z,4.75
2019-05-19T10:45:26.621Z,5.67
2019-05-19T10:47:56.161Z,5.00
2019-05-19T10:50:25.652Z,5.17
2019-05-19T10:52:55.131Z,5.20
2019-05-19T10:55:36.047Z,5.53
2019-05-19T10:57:55.765Z,5.47
2019-05-19T11:00:25.405Z,4.87
2019-05-19T11:02:54.975Z,4.83
2019-05-19T11:05:24.561Z,4.87
2019-05-19T11:07:54.070Z,4.67
2019-05-19T11:10:23.562Z,5.20
2019-05-19T11:12:53.046Z,4.80
2019-05-19T11:15:22.528Z,4.67
2019-05-19T11:17:52.048Z,5.00
2019-05-19T11:20:21.644Z,4.57
2019-05-19T11:22:51.262Z,4.60
2019-05-19T11:25:32.996Z,4.40
2019-05-19T11:27:52.091Z,3.85
2019-05-19T11:30:21.591Z,3.60
2019-05-19T11:32:51.289Z,3.52
2019-05-19T11:35:20.787Z,3.70
2019-05-19T11:37:50.358Z,3.42
2019-05-19T11:40:19.822Z,3.27
2019-05-19T11:42:49.321Z,2.98
2019-05-19T11:45:18.918Z,3.12
2019-05-19T11:47:48.422Z,2.72
2019-05-19T11:50:18.098Z,3.30
2019-05-19T11:52:47.596Z,3.05
2019-05-19T11:55:17.157Z,3.30
2019-05-19T11:57:46.837Z,3.30
2019-05-19T12:00:16.892Z,2.65
2019-05-19T12:02:46.421Z,3.30
2019-05-19T12:05:16.351Z,3.40
2019-05-19T12:07:45.859Z,3.62
2019-05-19T12:10:15.443Z,3.58
2019-05-19T12:12:44.950Z,3.00
2019-05-19T12:15:14.939Z,3.40
2019-05-19T12:17:44.439Z,3.75
2019-05-19T12:20:14.209Z,3.67
2019-05-19T12:22:43.826Z,3.40
2019-05-19T12:25:13.420Z,3.43
2019-05-19T12:27:42.916Z,3.23
2019-05-19T12:30:15.659Z,3.33
2019-05-19T12:32:45.260Z,3.00
2019-05-19T12:35:14.900Z,2.90
2019-05-19T12:37:44.430Z,3.27
2019-05-19T12:40:14.085Z,2.33
2019-05-19T12:42:43.600Z,2.77
2019-05-19T12:45:13.223Z,2.87
2019-05-19T12:47:42.852Z,2.87
2019-05-19T12:50:12.757Z,2.70
2019-05-19T12:52:42.358Z,2.53
2019-05-19T12:55:12.394Z,3.03
2019-05-19T12:57:41.829Z,2.63
2019-05-19T13:00:12.868Z,2.40
2019-05-19T13:02:42.341Z,2.80
2019-05-19T13:05:12.015Z,2.70
2019-05-19T13:07:41.477Z,2.97
2019-05-19T13:10:11.120Z,2.63
2019-05-19T13:12:40.593Z,2.27
2019-05-19T13:15:10.536Z,2.20
2019-05-19T13:17:40.017Z,3.03
2019-05-19T13:20:09.799Z,2.23
2019-05-19T13:22:39.300Z,2.60
2019-05-19T13:25:09.017Z,2.60
2019-05-19T13:27:38.566Z,3.33
2019-05-19T13:30:09.510Z,3.37
2019-05-19T13:32:39.027Z,4.67
2019-05-19T13:35:08.686Z,3.35
2019-05-19T13:37:38.179Z,3.77
2019-05-19T13:40:08.445Z,3.30
2019-05-19T13:42:37.966Z,4.70
2019-05-19T13:45:08.568Z,3.30
2019-05-19T13:47:38.091Z,3.50
2019-05-19T13:50:08.312Z,3.30
2019-05-19T13:52:37.897Z,5.40
2019-05-19T13:55:07.660Z,3.60
2019-05-19T13:57:37.270Z,4.05
2019-05-19T14:00:07.759Z,3.62
2019-05-19T14:02:37.290Z,4.00
2019-05-19T14:05:06.998Z,3.20
2019-05-19T14:07:36.517Z,3.93
2019-05-19T14:10:06.963Z,3.72
2019-05-19T14:12:36.474Z,3.98
2019-05-19T14:15:06.889Z,6.50
2019-05-19T14:17:36.449Z,4.00
2019-05-19T14:20:07.653Z,3.58
2019-05-19T14:22:37.147Z,4.12
2019-05-19T14:25:06.707Z,4.05
2019-05-19T14:27:36.275Z,4.28
2019-05-19T14:30:07.226Z,3.47
2019-05-19T14:32:36.733Z,3.25
2019-05-19T14:35:07.417Z,3.20
2019-05-19T14:37:36.991Z,4.17
2019-05-19T14:40:07.042Z,3.17
2019-05-19T14:42:38.188Z,3.00
2019-05-19T14:45:08.379Z,3.42
2019-05-19T14:47:37.884Z,3.33
2019-05-19T14:50:07.610Z,3.90
2019-05-19T14:52:37.126Z,3.27
2019-05-19T14:55:07.009Z,3.47
2019-05-19T14:57:44.478Z,3.43
2019-05-19T15:00:09.064Z,3.60
2019-05-19T15:02:38.658Z,3.75
2019-05-19T15:05:08.933Z,3.10
2019-05-19T15:07:39.025Z,3.10
2019-05-19T15:10:09.209Z,3.62
2019-05-19T15:12:39.247Z,8.28
2019-05-19T15:15:09.221Z,3.47
2019-05-19T15:17:39.280Z,3.10
2019-05-19T15:20:09.409Z,3.13
2019-05-19T15:22:38.879Z,3.20
2019-05-19T15:25:08.572Z,4.20
2019-05-19T15:27:38.050Z,3.02
2019-05-19T15:30:12.889Z,3.17
2019-05-19T15:32:39.188Z,2.70
2019-05-19T15:35:08.767Z,2.70
2019-05-19T15:37:38.309Z,2.87
2019-05-19T15:40:09.607Z,3.77
2019-05-19T15:42:39.246Z,3.33
2019-05-19T15:45:09.048Z,3.53
2019-05-19T15:47:38.614Z,3.50
2019-05-19T15:50:11.805Z,3.67
2019-05-19T15:52:41.349Z,3.47
2019-05-19T15:55:10.967Z,2.90
2019-05-19T15:57:40.455Z,3.30
2019-05-19T16:00:10.650Z,2.90
2019-05-19T16:02:40.230Z,3.13
2019-05-19T16:05:09.976Z,2.90
2019-05-19T16:07:39.459Z,2.83
2019-05-19T16:10:09.474Z,2.80
2019-05-19T16:12:39.306Z,2.90
2019-05-19T16:15:09.146Z,3.20
2019-05-19T16:17:38.746Z,3.77
2019-05-19T16:20:09.577Z,2.90
2019-05-19T16:22:40.175Z,3.43
2019-05-19T16:25:09.904Z,3.30
2019-05-19T16:27:39.496Z,3.20
2019-05-19T16:30:10.772Z,3.30
2019-05-19T16:32:40.313Z,5.47
2019-05-19T16:35:09.840Z,7.37
2019-05-19T16:37:39.404Z,3.53
2019-05-19T16:40:09.483Z,3.83
2019-05-19T16:42:38.945Z,3.30
2019-05-19T16:45:08.956Z,3.00
2019-05-19T16:47:42.866Z,2.63
2019-05-19T16:50:12.675Z,2.50
2019-05-19T16:52:42.252Z,2.77
2019-05-19T16:55:13.588Z,2.80
2019-05-19T16:57:43.198Z,3.73
2019-05-19T17:00:14.126Z,2.43
2019-05-19T17:02:43.825Z,2.87
2019-05-19T17:05:14.956Z,2.33
2019-05-19T17:07:45.628Z,2.73
2019-05-19T17:10:15.318Z,2.93
2019-05-19T17:12:46.497Z,2.83
2019-05-19T17:15:19.546Z,2.80
2019-05-19T17:17:50.400Z,2.30
2019-05-19T17:20:20.683Z,1.50
2019-05-19T17:22:50.205Z,1.70
2019-05-19T17:25:20.922Z,1.43
2019-05-19T17:27:50.479Z,1.37
2019-05-19T17:30:20.124Z,1.53
2019-05-19T17:32:49.606Z,1.80
2019-05-19T17:35:19.267Z,3.10
2019-05-19T17:37:48.799Z,1.57
2019-05-19T17:40:18.716Z,1.65
2019-05-19T17:42:48.313Z,1.70
2019-05-19T17:45:18.578Z,1.40
2019-05-19T17:47:48.208Z,1.47
2019-05-19T17:50:21.007Z,2.50
2019-05-19T17:52:50.605Z,1.80
2019-05-19T17:55:20.112Z,3.20
2019-05-19T17:57:49.674Z,1.90
2019-05-19T18:00:22.403Z,1.87
2019-05-19T18:02:51.921Z,1.60
2019-05-19T18:05:21.474Z,2.10
2019-05-19T18:07:50.941Z,2.75
2019-05-19T18:10:20.538Z,1.90
2019-05-19T18:12:50.200Z,2.00
2019-05-19T18:15:19.682Z,1.85
2019-05-19T18:17:49.196Z,1.98
2019-05-19T18:20:23.812Z,2.05
2019-05-19T18:22:50.083Z,2.77
2019-05-19T18:25:19.574Z,4.80
2019-05-19T18:27:51.690Z,2.80
2019-05-19T18:30:21.290Z,2.70
2019-05-19T18:32:50.887Z,4.35
2019-05-19T18:35:20.413Z,2.70
2019-05-19T18:37:49.919Z,2.50
2019-05-19T18:40:19.817Z,2.40
2019-05-19T18:42:49.311Z,2.37
2019-05-19T18:45:20.108Z,2.40
2019-05-19T18:47:49.771Z,2.80
2019-05-19T18:50:20.279Z,3.12
2019-05-19T18:52:49.828Z,2.90
2019-05-19T18:55:19.630Z,3.17
2019-05-19T18:57:49.532Z,2.90
2019-05-19T19:00:22.201Z,2.42
2019-05-19T19:02:51.940Z,2.87
2019-05-19T19:05:21.623Z,2.62
2019-05-19T19:07:52.736Z,3.10
2019-05-19T19:10:22.257Z,3.20
2019-05-19T19:12:51.720Z,3.37
2019-05-19T19:15:22.505Z,3.65
2019-05-19T19:17:52.064Z,3.37
2019-05-19T19:20:21.622Z,3.45
2019-05-19T19:22:52.452Z,3.37
2019-05-19T19:25:23.953Z,4.25
2019-05-19T19:27:53.514Z,3.47
2019-05-19T19:30:23.195Z,3.87
2019-05-19T19:32:52.689Z,3.92
2019-05-19T19:35:22.328Z,4.05
2019-05-19T19:37:51.834Z,3.17
2019-05-19T19:40:24.615Z,3.40
2019-05-19T19:42:54.127Z,2.90
2019-05-19T19:45:23.717Z,3.22
2019-05-19T19:47:53.307Z,2.85
2019-05-19T19:50:22.878Z,3.05
2019-05-19T19:52:52.421Z,2.60
2019-05-19T19:55:22.493Z,3.70
2019-05-19T19:57:52.301Z,2.60
2019-05-19T20:00:24.976Z,2.70
2019-05-19T20:02:54.499Z,2.98
2019-05-19T20:05:24.191Z,2.20
2019-05-19T20:07:53.946Z,2.95
2019-05-19T20:10:23.510Z,1.95
2019-05-19T20:12:53.108Z,2.25
2019-05-19T20:15:22.602Z,2.30
2019-05-19T20:17:52.636Z,2.20
2019-05-19T20:20:24.156Z,1.87
2019-05-19T20:22:53.770Z,2.40
2019-05-19T20:25:50.408Z,2.33
2019-05-19T20:28:20.060Z,2.10
2019-05-19T20:30:49.692Z,2.40
2019-05-19T20:33:19.443Z,2.35
2019-05-19T20:35:49.114Z,2.52
2019-05-19T20:38:18.688Z,2.70
2019-05-19T20:40:49.220Z,2.60
2019-05-19T20:43:18.739Z,2.10
2019-05-19T20:45:48.277Z,2.52
2019-05-19T20:48:17.895Z,2.52
2019-05-19T20:50:48.258Z,2.50
2019-05-19T20:53:17.814Z,2.50
2019-05-19T20:55:47.717Z,2.92
2019-05-19T20:58:17.244Z,3.25
2019-05-19T21:00:51.529Z,2.87
2019-05-19T21:03:19.435Z,3.20
2019-05-19T21:05:50.362Z,3.17
2019-05-19T21:08:19.920Z,3.22
2019-05-19T21:10:49.557Z,3.47
2019-05-19T21:13:19.123Z,3.47
2019-05-19T21:15:48.629Z,3.00
2019-05-19T21:18:18.311Z,3.30
2019-05-19T21:20:49.061Z,4.87
2019-05-19T21:23:18.687Z,2.92
2019-05-19T21:25:48.272Z,2.85
2019-05-19T21:28:17.794Z,3.40
2019-05-19T21:30:47.321Z,3.10
2019-05-19T21:33:16.863Z,2.92
2019-05-19T21:35:46.384Z,2.80
2019-05-19T21:38:15.998Z,2.90
2019-05-19T21:40:45.634Z,2.50
2019-05-19T21:43:15.128Z,2.87
2019-05-19T21:45:44.636Z,2.70
2019-05-19T21:48:14.189Z,2.85
2019-05-19T21:50:43.766Z,3.45
2019-05-19T21:53:13.277Z,3.27
2019-05-19T21:55:42.752Z,3.02
2019-05-19T21:58:12.339Z,3.00
2019-05-19T22:00:42.265Z,3.60
2019-05-19T22:03:11.793Z,3.33
2019-05-19T22:05:52.995Z,3.22
2019-05-19T22:08:14.172Z,3.20
2019-05-19T22:10:43.773Z,3.50
2019-05-19T22:13:13.452Z,5.42
2019-05-19T22:15:43.011Z,3.62
2019-05-19T22:18:12.666Z,3.85
2019-05-19T22:20:42.227Z,4.60
2019-05-19T22:23:11.769Z,4.50
2019-05-19T22:25:41.394Z,4.65
2019-05-19T22:28:10.952Z,3.37
2019-05-19T22:30:40.514Z,3.75
2019-05-19T22:33:10.040Z,4.65
2019-05-19T22:35:40.180Z,3.60
2019-05-19T22:38:09.860Z,3.50
2019-05-19T22:40:39.534Z,3.60
2019-05-19T22:43:09.072Z,3.77
2019-05-19T22:45:38.624Z,3.58
2019-05-19T22:48:08.194Z,3.00
2019-05-19T22:50:37.727Z,2.95
2019-05-19T22:53:07.293Z,2.90
2019-05-19T22:55:36.834Z,2.85
2019-05-19T22:58:06.307Z,2.60
2019-05-19T23:00:36.083Z,3.40
2019-05-19T23:03:05.566Z,2.60
2019-05-19T23:05:35.068Z,3.17
2019-05-19T23:08:04.565Z,2.80
2019-05-19T23:10:34.151Z,3.05
2019-05-19T23:13:03.695Z,3.10
2019-05-19T23:15:33.288Z,3.10
2019-05-19T23:18:02.757Z,2.50
2019-05-19T23:20:32.263Z,3.00
2019-05-19T23:23:01.815Z,2.70
2019-05-19T23:25:31.368Z,2.75
2019-05-19T23:28:00.959Z,2.47
2019-05-19T23:30:30.442Z,2.58
2019-05-19T23:32:59.996Z,2.60
2019-05-19T23:35:29.723Z,2.80
2019-05-19T23:37:59.305Z,2.47
2019-05-19T23:40:28.836Z,2.60
2019-05-19T23:42:58.403Z,3.10
2019-05-19T23:45:27.994Z,3.92
2019-05-19T23:47:57.477Z,4.70
2019-05-19T23:50:26.990Z,5.20
2019-05-19T23:52:56.810Z,4.47
2019-05-19T23:55:26.352Z,4.78
2019-05-19T23:57:55.904Z,4.25
